createdAt,value
2018-08-07T00:02:12.861Z,23.88
2018-08-07T00:04:44.696Z,23.87
2018-08-07T00:07:18.453Z,23.94
2018-08-07T00:09:51.225Z,23.93
2018-08-07T00:12:22.505Z,23.92
2018-08-07T00:14:53.836Z,23.88
2018-08-07T00:17:26.181Z,23.88
2018-08-07T00:19:57.896Z,23.82
2018-08-07T00:22:29.230Z,23.86
2018-08-07T00:25:00.419Z,23.85
2018-08-07T00:27:33.851Z,24.01
2018-08-07T00:30:05.900Z,24.06
2018-08-07T00:32:37.396Z,24.09
2018-08-07T00:35:13.822Z,24.01
2018-08-07T00:37:45.124Z,23.81
2018-08-07T00:40:19.215Z,23.80
2018-08-07T00:42:50.279Z,23.66
2018-08-07T00:45:26.616Z,23.61
2018-08-07T00:47:57.930Z,23.55
2018-08-07T00:50:29.494Z,23.44
2018-08-07T00:53:00.844Z,23.34
2018-08-07T00:55:39.928Z,23.46
2018-08-07T00:58:11.780Z,23.55
2018-08-07T01:00:42.809Z,23.58
2018-08-07T01:03:14.488Z,23.63
2018-08-07T01:05:45.868Z,23.58
2018-08-07T01:08:18.143Z,23.61
2018-08-07T01:10:49.883Z,23.58
2018-08-07T01:13:22.397Z,23.60
2018-08-07T01:15:53.633Z,23.65
2018-08-07T01:18:25.126Z,23.70
2018-08-07T01:20:56.324Z,23.77
2018-08-07T01:23:29.752Z,23.83
2018-08-07T01:26:02.483Z,23.85
2018-08-07T01:28:33.633Z,23.83
2018-08-07T01:31:08.736Z,23.89
2018-08-07T01:33:39.797Z,23.86
2018-08-07T01:36:10.889Z,23.83
2018-08-07T01:38:43.169Z,23.81
2018-08-07T01:41:14.236Z,23.86
2018-08-07T01:43:45.456Z,23.78
2018-08-07T01:46:27.401Z,23.72
2018-08-07T01:48:58.755Z,23.55
2018-08-07T01:51:30.592Z,23.52
2018-08-07T01:54:02.851Z,23.53
2018-08-07T01:56:34.645Z,23.53
2018-08-07T01:59:06.850Z,23.47
2018-08-07T02:01:38.765Z,23.51
2018-08-07T02:04:09.811Z,23.48
2018-08-07T02:06:41.115Z,23.49
2018-08-07T02:09:12.614Z,23.43
2018-08-07T02:11:44.646Z,23.37
2018-08-07T02:14:17.584Z,23.39
2018-08-07T02:16:50.685Z,23.36
2018-08-07T02:19:21.824Z,23.21
2018-08-07T02:21:53.841Z,23.07
2018-08-07T02:24:30.806Z,22.97
2018-08-07T02:27:01.990Z,22.92
2018-08-07T02:29:33.019Z,22.91
2018-08-07T02:32:04.756Z,22.83
2018-08-07T02:34:39.775Z,22.78
2018-08-07T02:37:11.505Z,22.80
2018-08-07T02:39:42.814Z,22.73
2018-08-07T02:42:13.876Z,22.66
2018-08-07T02:44:46.094Z,22.66
2018-08-07T02:47:17.596Z,22.62
2018-08-07T02:49:48.804Z,22.61
2018-08-07T02:52:26.160Z,22.54
2018-08-07T02:54:57.107Z,22.45
2018-08-07T02:57:28.267Z,22.54
2018-08-07T02:59:59.963Z,22.61
2018-08-07T03:02:32.093Z,22.61
2018-08-07T03:05:03.803Z,22.57
2018-08-07T03:07:36.305Z,22.50
2018-08-07T03:10:08.579Z,22.39
2018-08-07T03:12:41.096Z,22.27
2018-08-07T03:15:15.129Z,22.34
2018-08-07T03:17:48.064Z,22.38
2018-08-07T03:20:19.588Z,22.55
2018-08-07T03:22:51.743Z,22.61
2018-08-07T03:25:23.131Z,22.70
2018-08-07T03:27:55.752Z,22.87
2018-08-07T03:30:26.957Z,23.35
2018-08-07T03:32:58.132Z,23.89
2018-08-07T03:35:29.535Z,24.62
2018-08-07T03:38:00.700Z,25.36
2018-08-07T03:40:31.715Z,26.00
2018-08-07T03:43:03.174Z,26.60
2018-08-07T03:45:34.462Z,27.17
2018-08-07T03:48:11.496Z,27.92
2018-08-07T03:50:43.091Z,28.41
2018-08-07T03:53:14.580Z,29.05
2018-08-07T03:55:45.850Z,29.61
2018-08-07T03:58:19.616Z,30.34
2018-08-07T04:00:51.091Z,31.03
2018-08-07T04:03:22.255Z,31.20
2018-08-07T04:05:53.874Z,31.70
2018-08-07T04:08:25.271Z,32.13
2018-08-07T04:10:57.413Z,32.97
2018-08-07T04:13:28.759Z,33.94
2018-08-07T04:15:59.909Z,34.91
2018-08-07T04:18:31.930Z,35.50
2018-08-07T04:21:03.285Z,36.21
2018-08-07T04:23:35.260Z,36.50
2018-08-07T04:26:08.272Z,36.93
2018-08-07T04:28:43.783Z,36.96
2018-08-07T04:31:15.214Z,38.11
2018-08-07T04:33:47.559Z,37.59
2018-08-07T04:36:18.733Z,38.83
2018-08-07T04:38:51.907Z,39.83
2018-08-07T04:41:23.139Z,39.90
2018-08-07T04:43:55.941Z,40.80
2018-08-07T04:46:27.742Z,41.58
2018-08-07T04:49:02.581Z,42.31
2018-08-07T04:51:33.738Z,42.75
2018-08-07T04:54:06.551Z,43.11
2018-08-07T04:56:38.403Z,43.26
2018-08-07T04:59:13.129Z,43.13
2018-08-07T05:01:44.573Z,43.73
2018-08-07T05:04:16.813Z,44.16
2018-08-07T05:06:48.406Z,44.87
2018-08-07T05:09:21.027Z,45.39
2018-08-07T05:11:52.661Z,44.62
2018-08-07T05:14:23.802Z,44.86
2018-08-07T05:16:55.146Z,44.97
2018-08-07T05:19:26.276Z,45.36
2018-08-07T05:21:58.610Z,44.07
2018-08-07T05:24:30.580Z,45.14
2018-08-07T05:27:02.675Z,45.75
2018-08-07T05:29:34.596Z,46.22
2018-08-07T05:32:05.899Z,46.86
2018-08-07T05:34:36.845Z,47.35
2018-08-07T05:37:09.721Z,47.79
2018-08-07T05:39:43.101Z,47.39
2018-08-07T05:42:16.172Z,47.41
2018-08-07T05:44:47.547Z,47.98
2018-08-07T05:47:18.586Z,47.16
2018-08-07T05:49:50.671Z,47.05
2018-08-07T05:52:22.148Z,47.00
2018-08-07T05:54:53.596Z,46.74
2018-08-07T05:57:25.266Z,47.08
2018-08-07T05:59:57.371Z,47.98
2018-08-07T06:02:28.593Z,48.37
2018-08-07T06:05:04.235Z,48.18
2018-08-07T06:07:37.678Z,47.72
2018-08-07T06:10:10.620Z,48.06
2018-08-07T06:12:41.989Z,46.27
2018-08-07T06:15:15.382Z,46.53
2018-08-07T06:17:47.775Z,47.06
2018-08-07T06:20:20.124Z,48.15
2018-08-07T06:22:51.988Z,48.78
2018-08-07T06:25:25.840Z,49.37
2018-08-07T06:27:57.767Z,49.26
2018-08-07T06:30:29.329Z,49.67
2018-08-07T06:33:00.647Z,50.07
2018-08-07T06:35:36.029Z,50.04
2018-08-07T06:38:09.909Z,50.36
2018-08-07T06:40:41.965Z,50.00
2018-08-07T06:43:13.963Z,50.24
2018-08-07T06:45:49.148Z,49.86
2018-08-07T06:48:20.378Z,47.85
2018-08-07T06:50:52.664Z,48.22
2018-08-07T06:53:24.364Z,48.68
2018-08-07T06:55:56.637Z,49.81
2018-08-07T06:58:28.011Z,50.04
2018-08-07T07:01:02.002Z,49.85
2018-08-07T07:03:35.232Z,49.87
2018-08-07T07:06:07.495Z,49.52
2018-08-07T07:08:38.775Z,49.56
2018-08-07T07:11:10.328Z,49.67
2018-08-07T07:13:41.640Z,50.13
2018-08-07T07:16:13.022Z,48.64
2018-08-07T07:18:44.354Z,49.96
2018-08-07T07:21:15.565Z,50.24
2018-08-07T07:23:46.715Z,49.91
2018-08-07T07:26:19.529Z,48.80
2018-08-07T07:28:52.021Z,46.30
2018-08-07T07:31:23.214Z,45.89
2018-08-07T07:34:00.768Z,44.98
2018-08-07T07:36:32.370Z,43.49
2018-08-07T07:39:04.706Z,43.95
2018-08-07T07:41:44.265Z,43.12
2018-08-07T07:44:15.518Z,41.60
2018-08-07T07:46:46.932Z,40.58
2018-08-07T07:49:19.549Z,39.72
2018-08-07T07:51:52.680Z,39.58
2018-08-07T07:54:23.909Z,38.36
2018-08-07T07:56:57.208Z,38.60
2018-08-07T07:59:28.448Z,37.44
2018-08-07T08:02:00.125Z,35.78
2018-08-07T08:04:31.358Z,35.09
2018-08-07T08:07:03.029Z,34.66
2018-08-07T08:09:34.184Z,34.48
2018-08-07T08:12:06.173Z,34.27
2018-08-07T08:14:37.311Z,34.32
2018-08-07T08:17:08.582Z,33.98
2018-08-07T08:19:40.070Z,34.18
2018-08-07T08:22:13.122Z,34.36
2018-08-07T08:24:44.251Z,33.94
2018-08-07T08:27:15.724Z,34.36
2018-08-07T08:29:48.290Z,34.24
2018-08-07T08:32:20.733Z,33.90
2018-08-07T08:34:52.202Z,33.83
2018-08-07T08:37:23.937Z,33.71
2018-08-07T08:40:01.066Z,33.04
2018-08-07T08:42:33.662Z,33.44
2018-08-07T08:45:05.125Z,33.01
2018-08-07T08:47:37.185Z,33.34
2018-08-07T08:50:15.833Z,33.07
2018-08-07T08:52:49.255Z,33.25
2018-08-07T08:55:21.118Z,34.04
2018-08-07T08:57:53.076Z,33.71
2018-08-07T09:00:26.628Z,33.52
2018-08-07T09:02:59.254Z,33.30
2018-08-07T09:05:31.467Z,33.70
2018-08-07T09:08:03.182Z,33.50
2018-08-07T09:10:34.683Z,33.19
2018-08-07T09:13:05.654Z,32.87
2018-08-07T09:15:41.485Z,32.80
2018-08-07T09:18:16.986Z,32.65
2018-08-07T09:20:48.177Z,32.72
2018-08-07T09:23:21.276Z,32.66
2018-08-07T09:25:52.763Z,32.48
2018-08-07T09:28:24.789Z,32.74
2018-08-07T09:30:56.300Z,32.85
2018-08-07T09:33:28.058Z,33.08
2018-08-07T09:35:59.589Z,32.36
2018-08-07T09:38:32.505Z,32.44
2018-08-07T09:41:04.877Z,32.74
2018-08-07T09:43:36.288Z,32.95
2018-08-07T09:46:11.622Z,32.89
2018-08-07T09:48:43.495Z,32.76
2018-08-07T09:51:14.936Z,32.63
2018-08-07T09:53:46.122Z,32.82
2018-08-07T09:56:17.537Z,33.05
2018-08-07T09:58:48.817Z,33.01
2018-08-07T10:01:25.459Z,33.05
2018-08-07T10:03:58.166Z,32.86
2018-08-07T10:06:30.743Z,32.22
2018-08-07T10:09:02.510Z,32.29
2018-08-07T10:11:33.662Z,31.52
2018-08-07T10:14:06.894Z,31.36
2018-08-07T10:16:38.463Z,31.69
2018-08-07T10:19:10.047Z,31.58
2018-08-07T10:21:41.520Z,32.22
2018-08-07T10:24:12.893Z,32.27
2018-08-07T10:26:44.112Z,32.17
2018-08-07T10:29:15.815Z,31.78
2018-08-07T10:31:47.942Z,32.02
2018-08-07T10:34:19.133Z,32.36
2018-08-07T10:36:50.735Z,32.53
2018-08-07T10:39:23.045Z,32.63
2018-08-07T10:41:54.775Z,32.43
2018-08-07T10:44:26.731Z,32.03
2018-08-07T10:46:58.271Z,32.20
2018-08-07T10:49:29.534Z,31.79
2018-08-07T10:52:01.095Z,32.09
2018-08-07T10:54:32.662Z,32.03
2018-08-07T10:57:04.716Z,31.99
2018-08-07T10:59:36.960Z,31.85
2018-08-07T11:02:09.465Z,31.94
2018-08-07T11:04:40.861Z,32.02
2018-08-07T11:07:12.850Z,31.82
2018-08-07T11:09:44.777Z,31.76
2018-08-07T11:12:16.200Z,31.60
2018-08-07T11:14:48.777Z,31.72
2018-08-07T11:17:20.809Z,31.56
2018-08-07T11:19:52.395Z,31.57
2018-08-07T11:22:23.803Z,31.57
2018-08-07T11:24:57.047Z,31.46
2018-08-07T11:27:29.908Z,31.59
2018-08-07T11:30:03.409Z,31.68
2018-08-07T11:32:37.161Z,31.74
2018-08-07T11:35:11.583Z,31.84
2018-08-07T11:37:44.106Z,31.79
2018-08-07T11:40:18.014Z,31.75
2018-08-07T11:42:52.882Z,31.85
2018-08-07T11:45:26.990Z,31.95
2018-08-07T11:47:59.128Z,31.85
2018-08-07T11:50:32.343Z,31.65
2018-08-07T11:53:03.921Z,31.78
2018-08-07T11:55:35.094Z,31.72
2018-08-07T11:58:07.127Z,31.94
2018-08-07T12:00:39.322Z,32.15
2018-08-07T12:03:11.720Z,32.08
2018-08-07T12:05:43.571Z,32.27
2018-08-07T12:08:15.523Z,32.52
2018-08-07T12:10:46.945Z,32.66
2018-08-07T12:13:18.317Z,32.43
2018-08-07T12:15:49.422Z,32.73
2018-08-07T12:18:20.581Z,33.11
2018-08-07T12:20:54.108Z,33.49
2018-08-07T12:23:28.930Z,33.85
2018-08-07T12:26:00.226Z,33.88
2018-08-07T12:28:32.009Z,33.77
2018-08-07T12:31:03.817Z,33.13
2018-08-07T12:33:35.247Z,31.95
2018-08-07T12:36:07.023Z,30.08
2018-08-07T12:38:39.818Z,28.90
2018-08-07T12:41:13.702Z,28.41
2018-08-07T12:43:45.047Z,28.46
2018-08-07T12:46:17.051Z,28.17
2018-08-07T12:48:48.156Z,27.75
2018-08-07T12:51:20.214Z,27.93
2018-08-07T12:53:52.504Z,27.90
2018-08-07T12:56:23.799Z,27.85
2018-08-07T12:58:55.004Z,27.93
2018-08-07T13:01:26.478Z,27.71
2018-08-07T13:03:58.285Z,27.67
2018-08-07T13:06:29.611Z,27.56
2018-08-07T13:09:01.037Z,27.58
2018-08-07T13:11:32.565Z,27.44
2018-08-07T13:14:03.703Z,27.41
2018-08-07T13:16:36.828Z,27.39
2018-08-07T13:19:08.045Z,27.38
2018-08-07T13:21:39.476Z,27.27
2018-08-07T13:24:11.042Z,27.10
2018-08-07T13:26:42.508Z,27.08
2018-08-07T13:29:14.339Z,27.10
2018-08-07T13:31:45.512Z,26.93
2018-08-07T13:34:16.639Z,27.00
2018-08-07T13:36:47.979Z,26.85
2018-08-07T13:39:19.900Z,26.76
2018-08-07T13:41:51.607Z,26.78
2018-08-07T13:44:22.751Z,26.81
2018-08-07T13:46:55.056Z,26.86
2018-08-07T13:49:27.032Z,26.89
2018-08-07T13:51:59.515Z,26.86
2018-08-07T13:54:30.926Z,26.82
2018-08-07T13:57:02.293Z,26.95
2018-08-07T13:59:34.154Z,26.82
2018-08-07T14:02:06.616Z,26.74
2018-08-07T14:04:38.055Z,26.90
2018-08-07T14:07:09.636Z,26.85
2018-08-07T14:09:41.490Z,26.92
2018-08-07T14:12:12.881Z,26.95
2018-08-07T14:14:44.400Z,27.01
2018-08-07T14:17:15.700Z,27.09
2018-08-07T14:19:46.992Z,27.08
2018-08-07T14:22:18.352Z,27.11
2018-08-07T14:24:49.665Z,27.24
2018-08-07T14:27:23.422Z,27.22
2018-08-07T14:29:54.497Z,27.32
2018-08-07T14:32:26.366Z,27.47
2018-08-07T14:34:58.125Z,27.55
2018-08-07T14:37:30.244Z,27.49
2018-08-07T14:40:01.405Z,27.68
2018-08-07T14:42:32.491Z,28.03
2018-08-07T14:45:03.826Z,28.01
2018-08-07T14:47:35.455Z,27.97
2018-08-07T14:50:08.943Z,27.99
2018-08-07T14:52:41.721Z,28.04
2018-08-07T14:55:13.359Z,28.05
2018-08-07T14:57:44.764Z,28.07
2018-08-07T15:00:18.441Z,28.07
2018-08-07T15:02:49.998Z,28.30
2018-08-07T15:05:21.650Z,28.47
2018-08-07T15:07:54.023Z,28.45
2018-08-07T15:10:26.848Z,28.40
2018-08-07T15:13:00.302Z,28.52
2018-08-07T15:15:33.641Z,28.55
2018-08-07T15:18:05.669Z,28.46
2018-08-07T15:20:38.416Z,28.66
2018-08-07T15:23:10.758Z,28.65
2018-08-07T15:25:42.696Z,28.49
2018-08-07T15:28:14.009Z,28.57
2018-08-07T15:30:45.415Z,28.57
2018-08-07T15:33:16.796Z,28.68
2018-08-07T15:35:48.026Z,28.89
2018-08-07T15:38:20.081Z,28.96
2018-08-07T15:40:52.187Z,29.08
2018-08-07T15:43:24.062Z,28.93
2018-08-07T15:45:55.372Z,29.07
2018-08-07T15:48:28.171Z,29.15
2018-08-07T15:50:59.883Z,29.18
2018-08-07T15:53:32.076Z,28.84
2018-08-07T15:56:05.130Z,28.52
2018-08-07T15:58:36.498Z,27.96
2018-08-07T16:01:09.478Z,28.24
2018-08-07T16:03:44.453Z,27.80
2018-08-07T16:06:15.932Z,27.80
2018-08-07T16:08:47.047Z,27.85
2018-08-07T16:11:18.565Z,27.86
2018-08-07T16:13:50.605Z,27.78
2018-08-07T16:16:22.162Z,27.53
2018-08-07T16:18:56.089Z,27.51
2018-08-07T16:21:27.735Z,27.45
2018-08-07T16:23:59.773Z,27.44
2018-08-07T16:26:32.034Z,27.18
2018-08-07T16:29:03.646Z,27.13
2018-08-07T16:31:36.850Z,27.00
2018-08-07T16:34:08.733Z,26.88
2018-08-07T16:36:40.461Z,26.78
2018-08-07T16:39:13.989Z,26.78
2018-08-07T16:41:45.659Z,26.78
2018-08-07T16:44:16.941Z,26.76
2018-08-07T16:46:50.518Z,26.70
2018-08-07T16:49:22.110Z,26.74
2018-08-07T16:51:53.340Z,26.86
2018-08-07T16:54:25.795Z,26.81
2018-08-07T16:56:57.370Z,26.59
2018-08-07T16:59:29.062Z,26.53
2018-08-07T17:02:01.032Z,26.49
2018-08-07T17:04:35.410Z,26.49
2018-08-07T17:07:06.474Z,26.32
2018-08-07T17:09:37.844Z,26.11
2018-08-07T17:12:09.328Z,26.07
2018-08-07T17:14:42.313Z,26.02
2018-08-07T17:17:13.778Z,26.12
2018-08-07T17:19:45.152Z,26.12
2018-08-07T17:22:17.689Z,26.02
2018-08-07T17:24:49.050Z,25.99
2018-08-07T17:27:20.362Z,25.97
2018-08-07T17:29:52.963Z,25.88
2018-08-07T17:32:26.381Z,26.05
2018-08-07T17:34:58.242Z,25.96
2018-08-07T17:37:29.682Z,25.90
2018-08-07T17:40:01.297Z,25.79
2018-08-07T17:42:32.727Z,25.74
2018-08-07T17:45:04.460Z,25.76
2018-08-07T17:47:36.407Z,25.67
2018-08-07T17:50:11.483Z,25.76
2018-08-07T17:52:43.077Z,25.70
2018-08-07T17:55:15.440Z,25.83
2018-08-07T17:57:47.049Z,25.69
2018-08-07T18:00:20.022Z,25.55
2018-08-07T18:02:51.556Z,25.29
2018-08-07T18:05:24.428Z,25.37
2018-08-07T18:07:58.250Z,25.33
2018-08-07T18:10:33.780Z,25.15
2018-08-07T18:13:05.190Z,24.98
2018-08-07T18:15:36.905Z,24.83
2018-08-07T18:18:08.757Z,25.06
2018-08-07T18:20:40.525Z,25.08
2018-08-07T18:23:12.979Z,25.10
2018-08-07T18:25:44.179Z,25.17
2018-08-07T18:28:15.609Z,25.01
2018-08-07T18:30:47.435Z,24.94
2018-08-07T18:33:20.245Z,24.80
2018-08-07T18:35:51.853Z,25.04
2018-08-07T18:38:23.490Z,24.86
2018-08-07T18:40:55.242Z,24.90
2018-08-07T18:43:26.693Z,24.77
2018-08-07T18:45:58.407Z,24.72
2018-08-07T18:48:30.118Z,24.72
2018-08-07T18:51:02.770Z,24.78
2018-08-07T18:53:34.247Z,24.79
2018-08-07T18:56:08.529Z,24.61
2018-08-07T18:58:40.234Z,24.70
2018-08-07T19:01:11.640Z,24.61
2018-08-07T19:03:44.410Z,24.41
2018-08-07T19:06:19.240Z,24.28
2018-08-07T19:08:52.483Z,24.45
2018-08-07T19:11:24.281Z,24.61
2018-08-07T19:13:58.651Z,24.37
2018-08-07T19:16:32.507Z,24.38
2018-08-07T19:19:14.283Z,24.15
2018-08-07T19:21:50.351Z,24.16
2018-08-07T19:24:23.289Z,24.27
2018-08-07T19:26:56.020Z,24.16
2018-08-07T19:29:28.720Z,24.21
2018-08-07T19:32:00.616Z,24.12
2018-08-07T19:34:32.416Z,24.22
2018-08-07T19:37:04.179Z,24.24
2018-08-07T19:39:35.845Z,24.31
2018-08-07T19:42:07.617Z,24.33
2018-08-07T19:44:38.849Z,24.25
2018-08-07T19:47:12.950Z,24.18
2018-08-07T19:49:45.626Z,24.17
2018-08-07T19:52:18.090Z,24.29
2018-08-07T19:54:49.653Z,24.22
2018-08-07T19:57:23.390Z,24.31
2018-08-07T19:59:55.646Z,24.28
2018-08-07T20:02:30.167Z,24.31
2018-08-07T20:05:02.175Z,24.17
2018-08-07T20:07:37.066Z,24.12
2018-08-07T20:10:11.112Z,24.11
2018-08-07T20:12:43.644Z,24.03
2018-08-07T20:15:19.776Z,23.91
2018-08-07T20:17:51.523Z,23.80
2018-08-07T20:20:23.541Z,23.77
2018-08-07T20:22:56.655Z,23.83
2018-08-07T20:25:28.446Z,23.78
2018-08-07T20:28:00.831Z,23.71
2018-08-07T20:30:33.406Z,23.77
2018-08-07T20:33:04.876Z,23.90
2018-08-07T20:35:37.034Z,24.02
2018-08-07T20:38:08.960Z,24.02
2018-08-07T20:40:41.911Z,24.08
2018-08-07T20:43:14.105Z,24.17
2018-08-07T20:45:48.361Z,24.00
2018-08-07T20:48:20.497Z,23.91
2018-08-07T20:50:52.282Z,23.74
2018-08-07T20:53:23.692Z,23.67
2018-08-07T20:55:55.369Z,23.59
2018-08-07T20:58:26.691Z,23.58
2018-08-07T21:00:59.224Z,23.73
2018-08-07T21:03:30.633Z,23.75
2018-08-07T21:06:02.218Z,23.55
2018-08-07T21:08:33.598Z,23.70
2018-08-07T21:11:04.919Z,23.61
2018-08-07T21:13:37.005Z,23.54
2018-08-07T21:16:08.485Z,23.59
2018-08-07T21:18:40.759Z,23.64
2018-08-07T21:21:11.851Z,23.70
2018-08-07T21:23:44.682Z,23.52
2018-08-07T21:26:16.776Z,23.49
2018-08-07T21:28:48.481Z,23.56
2018-08-07T21:31:19.688Z,23.44
2018-08-07T21:33:50.974Z,23.45
2018-08-07T21:36:22.673Z,23.43
2018-08-07T21:38:54.178Z,23.41
2018-08-07T21:41:26.345Z,23.46
2018-08-07T21:43:57.797Z,23.65
2018-08-07T21:46:29.183Z,23.83
2018-08-07T21:49:00.337Z,23.68
2018-08-07T21:51:31.650Z,23.74
2018-08-07T21:54:04.676Z,23.64
2018-08-07T21:56:36.109Z,23.49
2018-08-07T21:59:08.545Z,23.45
2018-08-07T22:01:40.109Z,23.50
2018-08-07T22:04:11.475Z,23.74
2018-08-07T22:06:43.763Z,23.74
2018-08-07T22:09:16.233Z,23.75
2018-08-07T22:11:47.419Z,23.72
2018-08-07T22:14:20.085Z,23.77
2018-08-07T22:16:56.534Z,23.75
2018-08-07T22:19:27.880Z,23.84
2018-08-07T22:21:59.228Z,23.74
2018-08-07T22:24:31.100Z,23.77
2018-08-07T22:27:03.177Z,23.75
2018-08-07T22:29:35.435Z,23.68
2018-08-07T22:32:06.784Z,23.63
2018-08-07T22:34:38.086Z,23.74
2018-08-07T22:37:09.157Z,23.72
2018-08-07T22:39:40.336Z,23.72
2018-08-07T22:42:12.959Z,23.69
2018-08-07T22:44:44.181Z,23.69
2018-08-07T22:47:16.804Z,23.78
2018-08-07T22:49:48.963Z,23.80
2018-08-07T22:52:20.331Z,23.76
2018-08-07T22:54:52.918Z,23.76
2018-08-07T22:57:24.127Z,23.79
2018-08-07T22:59:56.490Z,23.87
2018-08-07T23:02:28.531Z,23.90
2018-08-07T23:04:59.880Z,23.85
2018-08-07T23:07:31.148Z,23.80
2018-08-07T23:10:02.958Z,23.77
2018-08-07T23:12:34.090Z,23.73
2018-08-07T23:15:06.759Z,23.68
2018-08-07T23:17:38.347Z,23.63
2018-08-07T23:20:10.436Z,23.71
2018-08-07T23:22:41.659Z,23.70
2018-08-07T23:25:14.540Z,23.74
2018-08-07T23:27:45.816Z,23.79
2018-08-07T23:30:19.059Z,23.83
2018-08-07T23:32:50.505Z,23.63
2018-08-07T23:35:24.548Z,23.55
2018-08-07T23:37:55.920Z,23.36
2018-08-07T23:40:27.491Z,23.30
2018-08-07T23:42:59.586Z,23.22
2018-08-07T23:45:31.069Z,23.21
2018-08-07T23:48:02.155Z,23.22
2018-08-07T23:50:33.343Z,23.26
2018-08-07T23:53:04.478Z,23.31
2018-08-07T23:55:36.480Z,23.38
2018-08-07T23:58:07.664Z,23.47
